createdAt,value
2018-07-03T00:02:05.999Z,13.80
2018-07-03T00:04:34.433Z,13.60
2018-07-03T00:07:02.906Z,13.60
2018-07-03T00:09:31.396Z,13.50
2018-07-03T00:11:59.908Z,13.50
2018-07-03T00:14:28.336Z,13.40
2018-07-03T00:17:02.102Z,13.40
2018-07-03T00:19:30.541Z,13.40
2018-07-03T00:21:59.040Z,13.40
2018-07-03T00:24:27.527Z,13.50
2018-07-03T00:26:56.006Z,13.50
2018-07-03T00:29:24.539Z,13.50
2018-07-03T00:31:52.984Z,13.40
2018-07-03T00:34:21.418Z,13.40
2018-07-03T00:36:49.922Z,13.40
2018-07-03T00:39:18.360Z,13.50
2018-07-03T00:41:46.805Z,13.50
2018-07-03T00:44:15.220Z,13.50
2018-07-03T00:46:43.691Z,13.50
2018-07-03T00:49:12.141Z,13.40
2018-07-03T00:51:40.619Z,13.30
2018-07-03T00:54:09.232Z,13.30
2018-07-03T00:59:05.880Z,13.20
2018-07-03T01:01:34.360Z,13.20
2018-07-03T01:04:02.813Z,13.10
2018-07-03T01:06:31.370Z,13.10
2018-07-03T01:09:00.318Z,13.10
2018-07-03T01:11:28.857Z,13.10
2018-07-03T01:13:57.668Z,13.10
2018-07-03T01:16:26.192Z,13.10
2018-07-03T01:18:54.627Z,13.10
2018-07-03T01:21:23.096Z,13.00
2018-07-03T01:23:51.565Z,13.00
2018-07-03T01:26:20.057Z,12.90
2018-07-03T01:28:48.510Z,12.80
2018-07-03T01:31:16.960Z,12.80
2018-07-03T01:33:45.419Z,12.60
2018-07-03T01:36:14.829Z,12.60
2018-07-03T01:38:43.272Z,12.50
2018-07-03T01:43:39.889Z,12.60
2018-07-03T01:46:08.368Z,12.70
2018-07-03T01:48:36.830Z,12.70
2018-07-03T01:51:05.275Z,12.70
2018-07-03T01:53:33.769Z,12.70
2018-07-03T01:56:02.218Z,12.70
2018-07-03T01:58:30.699Z,12.70
2018-07-03T02:00:59.149Z,12.70
2018-07-03T02:03:27.700Z,12.60
2018-07-03T02:05:56.164Z,12.60
2018-07-03T02:08:24.634Z,12.40
2018-07-03T02:10:53.074Z,12.30
2018-07-03T02:13:21.526Z,12.30
2018-07-03T02:15:49.962Z,12.30
2018-07-03T02:18:18.396Z,12.20
2018-07-03T02:20:46.825Z,12.20
2018-07-03T02:23:15.309Z,12.20
2018-07-03T02:25:43.733Z,12.20
2018-07-03T02:28:12.236Z,12.10
2018-07-03T02:30:40.669Z,12.10
2018-07-03T02:33:09.149Z,12.10
2018-07-03T02:35:37.574Z,12.10
2018-07-03T02:38:06.083Z,12.10
2018-07-03T02:40:34.545Z,12.10
2018-07-03T02:43:03.013Z,12.10
2018-07-03T02:45:31.494Z,12.10
2018-07-03T02:47:59.997Z,12.10
2018-07-03T02:50:28.442Z,12.10
2018-07-03T02:52:57.093Z,12.20
2018-07-03T02:55:25.514Z,12.20
2018-07-03T02:57:53.993Z,12.20
2018-07-03T03:00:22.477Z,12.20
2018-07-03T03:02:50.946Z,12.10
2018-07-03T03:05:19.396Z,12.00
2018-07-03T03:07:47.858Z,11.90
2018-07-03T03:10:16.306Z,11.90
2018-07-03T03:12:44.742Z,11.80
2018-07-03T03:15:13.264Z,11.80
2018-07-03T03:17:41.703Z,11.80
2018-07-03T03:20:10.193Z,11.80
2018-07-03T03:22:38.653Z,11.80
2018-07-03T03:25:07.148Z,11.90
2018-07-03T03:27:35.600Z,12.00
2018-07-03T03:30:04.714Z,12.00
2018-07-03T03:32:33.153Z,12.10
2018-07-03T03:35:01.597Z,12.10
2018-07-03T03:37:30.036Z,12.20
2018-07-03T03:39:58.537Z,12.20
2018-07-03T03:42:26.953Z,12.30
2018-07-03T03:44:55.428Z,12.40
2018-07-03T03:49:52.048Z,12.60
2018-07-03T03:52:20.522Z,12.70
2018-07-03T03:54:49.013Z,12.90
2018-07-03T03:57:17.453Z,13.00
2018-07-03T03:59:45.870Z,12.90
2018-07-03T04:02:14.394Z,12.90
2018-07-03T04:04:42.790Z,13.00
2018-07-03T04:07:11.350Z,13.00
2018-07-03T04:09:39.788Z,13.20
2018-07-03T04:12:08.533Z,13.20
2018-07-03T04:14:36.972Z,13.40
2018-07-03T04:17:05.718Z,13.60
2018-07-03T04:19:34.156Z,13.60
2018-07-03T04:22:02.630Z,13.80
2018-07-03T04:24:31.085Z,13.90
2018-07-03T04:26:59.540Z,14.10
2018-07-03T04:31:56.127Z,14.60
2018-07-03T04:34:24.550Z,14.70
2018-07-03T04:36:53.023Z,14.70
2018-07-03T04:39:21.462Z,14.70
2018-07-03T04:41:49.904Z,14.70
2018-07-03T04:44:18.330Z,14.70
2018-07-03T04:46:46.841Z,14.80
2018-07-03T04:49:15.274Z,15.00
2018-07-03T04:51:43.769Z,15.00
2018-07-03T04:54:12.269Z,15.20
2018-07-03T04:56:40.778Z,15.60
2018-07-03T04:59:09.228Z,15.70
2018-07-03T05:01:37.671Z,15.70
2018-07-03T05:04:06.189Z,15.90
2018-07-03T05:06:34.638Z,16.10
2018-07-03T05:09:03.214Z,16.50
2018-07-03T05:11:31.677Z,16.60
2018-07-03T05:14:00.149Z,16.80
2018-07-03T05:16:28.602Z,17.20
2018-07-03T05:18:57.073Z,17.60
2018-07-03T05:21:25.575Z,17.70
2018-07-03T05:23:54.072Z,18.00
2018-07-03T05:26:22.523Z,18.30
2018-07-03T05:28:50.969Z,18.60
2018-07-03T05:31:19.474Z,18.60
2018-07-03T05:33:47.918Z,18.60
2018-07-03T05:36:16.453Z,18.70
2018-07-03T05:38:44.962Z,18.90
2018-07-03T05:41:13.447Z,18.70
2018-07-03T05:43:41.909Z,18.80
2018-07-03T05:46:10.440Z,18.80
2018-07-03T05:48:38.890Z,19.00
2018-07-03T05:51:07.354Z,19.20
2018-07-03T05:53:35.823Z,19.60
2018-07-03T05:56:04.336Z,20.10
2018-07-03T05:58:32.769Z,20.30
2018-07-03T06:01:01.233Z,20.20
2018-07-03T06:03:29.681Z,20.10
2018-07-03T06:05:58.164Z,19.80
2018-07-03T06:08:26.610Z,19.60
2018-07-03T06:10:55.451Z,19.60
2018-07-03T06:13:23.912Z,20.00
2018-07-03T06:15:52.380Z,20.30
2018-07-03T06:18:20.858Z,20.50
2018-07-03T06:20:49.332Z,20.60
2018-07-03T06:25:46.017Z,21.10
2018-07-03T06:28:14.484Z,20.90
2018-07-03T06:30:43.115Z,20.80
2018-07-03T06:33:11.700Z,20.90
2018-07-03T06:35:40.027Z,21.00
2018-07-03T06:38:08.461Z,21.20
2018-07-03T06:40:37.061Z,21.20
2018-07-03T06:43:05.525Z,21.20
2018-07-03T06:45:33.995Z,21.10
2018-07-03T06:48:02.424Z,20.90
2018-07-03T06:50:30.897Z,20.90
2018-07-03T06:52:59.433Z,20.90
2018-07-03T06:55:27.921Z,21.10
2018-07-03T06:57:56.407Z,21.10
2018-07-03T07:00:24.904Z,20.90
2018-07-03T07:02:53.353Z,20.80
2018-07-03T07:05:21.850Z,20.70
2018-07-03T07:07:50.288Z,20.60
2018-07-03T07:10:18.793Z,20.40
2018-07-03T07:12:47.261Z,20.50
2018-07-03T07:15:15.710Z,20.90
2018-07-03T07:17:44.185Z,21.30
2018-07-03T07:20:12.623Z,21.60
2018-07-03T07:22:41.121Z,21.70
2018-07-03T07:25:09.189Z,22.10
2018-07-03T07:27:37.735Z,22.30
2018-07-03T07:30:06.532Z,22.40
2018-07-03T07:32:35.054Z,22.40
2018-07-03T07:35:03.553Z,22.20
2018-07-03T07:37:32.056Z,22.00
2018-07-03T07:40:00.516Z,21.90
2018-07-03T07:42:29.009Z,21.60
2018-07-03T07:44:57.440Z,21.60
2018-07-03T07:47:25.895Z,21.80
2018-07-03T07:49:54.317Z,21.80
2018-07-03T07:52:22.860Z,21.80
2018-07-03T07:54:51.367Z,21.80
2018-07-03T07:57:19.848Z,21.80
2018-07-03T07:59:48.267Z,21.50
2018-07-03T08:02:16.788Z,21.70
2018-07-03T08:04:45.222Z,22.10
2018-07-03T08:07:13.696Z,22.60
2018-07-03T08:09:42.123Z,23.00
2018-07-03T08:12:10.616Z,24.30
2018-07-03T08:14:39.097Z,24.60
2018-07-03T08:17:07.541Z,24.80
2018-07-03T08:19:36.026Z,25.60
2018-07-03T08:22:04.549Z,25.70
2018-07-03T08:24:32.984Z,26.20
2018-07-03T08:27:01.442Z,26.50
2018-07-03T08:29:29.894Z,26.50
2018-07-03T08:31:58.345Z,26.20
2018-07-03T08:34:26.809Z,25.60
2018-07-03T08:36:55.413Z,25.70
2018-07-03T08:39:23.876Z,28.00
2018-07-03T08:41:52.387Z,27.20
2018-07-03T08:44:20.809Z,26.60
2018-07-03T08:46:49.340Z,26.00
2018-07-03T08:49:17.777Z,25.20
2018-07-03T08:51:46.364Z,24.60
2018-07-03T08:54:15.098Z,23.90
2018-07-03T08:56:43.526Z,23.30
2018-07-03T08:59:11.977Z,23.30
2018-07-03T09:01:40.453Z,23.00
2018-07-03T09:04:08.905Z,24.80
2018-07-03T09:06:37.376Z,25.20
2018-07-03T09:09:08.524Z,26.10
2018-07-03T09:11:37.042Z,26.60
2018-07-03T09:14:06.073Z,27.10
2018-07-03T09:16:34.518Z,28.50
2018-07-03T09:19:03.009Z,28.00
2018-07-03T09:21:31.507Z,27.60
2018-07-03T09:23:59.961Z,27.30
2018-07-03T09:26:28.381Z,27.10
2018-07-03T09:28:56.830Z,26.80
2018-07-03T09:31:25.334Z,26.70
2018-07-03T09:33:53.791Z,25.70
2018-07-03T09:36:22.251Z,26.80
2018-07-03T09:38:50.722Z,29.20
2018-07-03T09:41:19.180Z,31.30
2018-07-03T09:43:47.653Z,32.10
2018-07-03T09:46:16.097Z,33.20
2018-07-03T09:48:44.646Z,33.80
2018-07-03T09:51:13.101Z,33.60
2018-07-03T09:53:41.685Z,34.20
2018-07-03T09:56:10.125Z,33.70
2018-07-03T09:58:38.656Z,32.10
2018-07-03T10:01:12.379Z,32.20
2018-07-03T10:03:40.877Z,31.60
2018-07-03T10:06:09.304Z,31.20
2018-07-03T10:08:37.760Z,30.20
2018-07-03T10:11:06.270Z,29.60
2018-07-03T10:13:34.744Z,28.70
2018-07-03T10:16:03.188Z,28.20
2018-07-03T10:18:31.657Z,27.80
2018-07-03T10:21:00.101Z,27.60
2018-07-03T10:23:28.552Z,27.60
2018-07-03T10:25:56.996Z,27.60
2018-07-03T10:28:25.441Z,27.60
2018-07-03T10:30:53.949Z,27.80
2018-07-03T10:33:22.469Z,27.60
2018-07-03T10:35:50.906Z,27.40
2018-07-03T10:38:19.365Z,26.80
2018-07-03T10:40:47.881Z,27.20
2018-07-03T10:43:16.328Z,28.00
2018-07-03T10:45:44.758Z,28.10
2018-07-03T10:48:13.245Z,28.50
2018-07-03T10:50:41.724Z,28.20
2018-07-03T10:53:10.222Z,28.00
2018-07-03T10:55:38.685Z,27.60
2018-07-03T10:58:07.153Z,27.30
2018-07-03T11:00:35.686Z,27.30
2018-07-03T11:03:04.159Z,27.20
2018-07-03T11:05:32.673Z,26.70
2018-07-03T11:08:01.131Z,26.30
2018-07-03T11:10:29.635Z,26.20
2018-07-03T11:12:58.071Z,26.10
2018-07-03T11:15:26.543Z,26.20
2018-07-03T11:17:54.968Z,26.30
2018-07-03T11:20:23.508Z,26.30
2018-07-03T11:22:51.960Z,26.60
2018-07-03T11:25:20.420Z,26.70
2018-07-03T11:27:49.050Z,26.80
2018-07-03T11:30:17.535Z,26.60
2018-07-03T11:32:45.961Z,26.50
2018-07-03T11:35:14.405Z,26.60
2018-07-03T11:37:42.920Z,26.40
2018-07-03T11:40:11.359Z,26.20
2018-07-03T11:42:39.788Z,25.60
2018-07-03T11:45:08.345Z,25.30
2018-07-03T11:47:36.769Z,25.30
2018-07-03T11:50:05.969Z,25.20
2018-07-03T11:52:34.412Z,25.40
2018-07-03T11:55:02.940Z,25.60
2018-07-03T11:57:31.625Z,25.80
2018-07-03T12:00:00.753Z,25.90
2018-07-03T12:02:29.231Z,25.80
2018-07-03T12:04:57.701Z,25.70
2018-07-03T12:07:26.231Z,25.60
2018-07-03T12:09:54.726Z,25.70
2018-07-03T12:12:23.173Z,25.70
2018-07-03T12:14:51.662Z,25.70
2018-07-03T12:17:20.116Z,25.90
2018-07-03T12:19:48.622Z,26.10
2018-07-03T12:22:17.083Z,26.00
2018-07-03T12:24:45.612Z,26.10
2018-07-03T12:27:14.101Z,26.40
2018-07-03T12:29:42.596Z,26.40
2018-07-03T12:32:11.055Z,26.00
2018-07-03T12:34:39.545Z,25.80
2018-07-03T12:37:07.984Z,25.70
2018-07-03T12:39:36.454Z,25.70
2018-07-03T12:42:04.976Z,25.70
2018-07-03T12:44:33.464Z,25.70
2018-07-03T12:47:01.955Z,25.70
2018-07-03T12:49:30.394Z,25.50
2018-07-03T12:51:58.861Z,25.40
2018-07-03T12:54:27.360Z,25.30
2018-07-03T12:56:55.803Z,25.60
2018-07-03T12:59:24.244Z,25.40
2018-07-03T13:01:52.760Z,25.30
2018-07-03T13:04:21.224Z,25.30
2018-07-03T13:06:49.764Z,25.40
2018-07-03T13:09:18.206Z,25.40
2018-07-03T13:11:46.977Z,25.20
2018-07-03T13:16:43.580Z,25.40
2018-07-03T13:19:12.001Z,25.50
2018-07-03T13:21:40.472Z,25.40
2018-07-03T13:24:08.964Z,25.40
2018-07-03T13:29:05.830Z,25.30
2018-07-03T13:31:34.307Z,25.20
2018-07-03T13:34:02.765Z,25.10
2018-07-03T13:36:31.253Z,25.10
2018-07-03T13:38:59.673Z,25.10
2018-07-03T13:41:28.165Z,25.00
2018-07-03T13:43:56.651Z,24.80
2018-07-03T13:46:25.147Z,24.90
2018-07-03T13:48:53.577Z,24.90
2018-07-03T13:51:22.053Z,25.10
2018-07-03T13:53:50.493Z,25.10
2018-07-03T13:56:18.936Z,25.10
2018-07-03T13:58:47.372Z,25.00
2018-07-03T14:01:15.837Z,25.00
2018-07-03T14:03:44.282Z,25.00
2018-07-03T14:06:12.761Z,25.10
2018-07-03T14:08:41.196Z,25.10
2018-07-03T14:11:10.056Z,25.20
2018-07-03T14:13:38.522Z,25.10
2018-07-03T14:18:35.207Z,25.00
2018-07-03T14:21:03.736Z,24.90
2018-07-03T14:23:32.172Z,25.20
2018-07-03T14:26:00.638Z,25.20
2018-07-03T14:28:29.109Z,25.20
2018-07-03T14:30:57.561Z,25.30
2018-07-03T14:33:26.036Z,25.30
2018-07-03T14:35:54.523Z,25.10
2018-07-03T14:38:23.015Z,25.20
2018-07-03T14:40:51.521Z,25.20
2018-07-03T14:43:19.990Z,25.10
2018-07-03T14:45:48.507Z,24.90
2018-07-03T14:48:16.996Z,25.00
2018-07-03T14:53:13.658Z,25.00
2018-07-03T14:55:42.101Z,25.00
2018-07-03T14:58:10.608Z,25.00
2018-07-03T15:00:39.068Z,25.10
2018-07-03T15:03:07.566Z,25.30
2018-07-03T15:05:36.035Z,25.20
2018-07-03T15:08:04.514Z,25.00
2018-07-03T15:10:32.973Z,25.00
2018-07-03T15:13:03.281Z,24.90
2018-07-03T15:15:31.733Z,24.80
2018-07-03T15:18:00.203Z,24.80
2018-07-03T15:20:28.696Z,24.80
2018-07-03T15:22:57.187Z,24.70
2018-07-03T15:25:25.633Z,24.50
2018-07-03T15:27:54.104Z,24.50
2018-07-03T15:30:22.529Z,24.40
2018-07-03T15:32:51.010Z,24.40
2018-07-03T15:35:19.469Z,24.30
2018-07-03T15:37:47.961Z,24.20
2018-07-03T15:40:16.500Z,24.20
2018-07-03T15:42:44.945Z,24.10
2018-07-03T15:45:14.601Z,24.00
2018-07-03T15:47:43.121Z,23.90
2018-07-03T15:50:12.411Z,23.80
2018-07-03T15:52:40.865Z,23.70
2018-07-03T15:55:10.035Z,23.70
2018-07-03T15:57:38.544Z,23.60
2018-07-03T16:00:10.141Z,23.60
2018-07-03T16:02:38.653Z,23.50
2018-07-03T16:05:19.461Z,23.40
2018-07-03T16:08:56.989Z,23.30
2018-07-03T16:11:25.473Z,23.10
2018-07-03T16:13:54.260Z,23.10
2018-07-03T16:16:22.905Z,23.10
2018-07-03T16:18:51.461Z,23.10
2018-07-03T16:21:19.908Z,23.20
2018-07-03T16:23:48.392Z,23.20
2018-07-03T16:26:16.825Z,23.30
2018-07-03T16:28:45.282Z,23.50
2018-07-03T16:31:13.720Z,23.60
2018-07-03T16:33:42.216Z,23.60
2018-07-03T16:36:10.661Z,23.60
2018-07-03T16:38:39.165Z,23.60
2018-07-03T16:41:07.944Z,23.70
2018-07-03T16:43:36.402Z,23.70
2018-07-03T16:46:04.880Z,23.80
2018-07-03T16:48:33.328Z,23.80
2018-07-03T16:51:01.786Z,23.90
2018-07-03T16:53:30.285Z,23.90
2018-07-03T16:55:58.739Z,23.80
2018-07-03T16:58:27.201Z,23.80
2018-07-03T17:00:55.612Z,23.70
2018-07-03T17:03:24.073Z,23.70
2018-07-03T17:05:52.508Z,23.70
2018-07-03T17:08:20.964Z,23.70
2018-07-03T17:10:49.417Z,23.60
2018-07-03T17:13:17.896Z,23.60
2018-07-03T17:15:46.345Z,23.60
2018-07-03T17:18:14.852Z,23.60
2018-07-03T17:20:43.363Z,23.60
2018-07-03T17:23:11.784Z,23.50
2018-07-03T17:25:40.352Z,23.60
2018-07-03T17:28:08.781Z,23.60
2018-07-03T17:30:37.258Z,23.60
2018-07-03T17:33:06.079Z,23.60
2018-07-03T17:35:34.547Z,23.70
2018-07-03T17:38:02.998Z,23.70
2018-07-03T17:40:42.560Z,23.70
2018-07-03T17:44:23.426Z,23.70
2018-07-03T17:46:51.848Z,23.80
2018-07-03T17:49:20.314Z,23.80
2018-07-03T17:51:48.742Z,23.60
2018-07-03T17:54:17.224Z,23.60
2018-07-03T17:56:45.657Z,23.50
2018-07-03T17:59:14.125Z,23.40
2018-07-03T18:01:42.566Z,23.40
2018-07-03T18:04:11.042Z,23.30
2018-07-03T18:06:39.488Z,23.30
2018-07-03T18:09:10.049Z,23.20
2018-07-03T18:11:38.493Z,23.10
2018-07-03T18:14:07.216Z,23.10
2018-07-03T18:16:35.741Z,23.00
2018-07-03T18:21:37.892Z,23.00
2018-07-03T18:24:06.301Z,22.90
2018-07-03T18:26:34.761Z,22.90
2018-07-03T18:29:03.269Z,22.90
2018-07-03T18:31:31.718Z,22.80
2018-07-03T18:34:00.160Z,22.80
2018-07-03T18:36:28.705Z,22.70
2018-07-03T18:38:57.252Z,22.70
2018-07-03T18:41:25.725Z,22.60
2018-07-03T18:43:54.149Z,22.60
2018-07-03T18:46:22.683Z,22.50
2018-07-03T18:48:51.108Z,22.40
2018-07-03T18:51:19.666Z,22.20
2018-07-03T18:53:48.158Z,22.20
2018-07-03T18:56:16.667Z,22.10
2018-07-03T18:58:45.223Z,22.10
2018-07-03T19:01:13.835Z,22.00
2018-07-03T19:03:42.248Z,21.90
2018-07-03T19:06:10.725Z,21.90
2018-07-03T19:08:39.227Z,21.80
2018-07-03T19:11:07.969Z,21.80
2018-07-03T19:13:36.421Z,21.70
2018-07-03T19:16:04.925Z,21.60
2018-07-03T19:18:33.400Z,21.50
2018-07-03T19:21:01.893Z,21.50
2018-07-03T19:23:30.399Z,21.40
2018-07-03T19:25:58.914Z,21.30
2018-07-03T19:28:27.355Z,21.20
2018-07-03T19:30:55.877Z,21.20
2018-07-03T19:33:24.304Z,21.10
2018-07-03T19:35:52.820Z,21.00
2018-07-03T19:38:21.301Z,20.90
2018-07-03T19:40:49.822Z,21.00
2018-07-03T19:43:26.773Z,20.90
2018-07-03T19:45:56.825Z,20.90
2018-07-03T19:48:25.301Z,20.80
2018-07-03T19:50:54.165Z,20.80
2018-07-03T19:53:22.600Z,20.60
2018-07-03T19:55:52.281Z,20.40
2018-07-03T19:58:21.148Z,20.30
2018-07-03T20:00:50.676Z,20.20
2018-07-03T20:03:19.160Z,20.10
2018-07-03T20:05:47.669Z,20.00
2018-07-03T20:08:16.148Z,20.00
2018-07-03T20:10:44.630Z,19.90
2018-07-03T20:13:14.695Z,19.90
2018-07-03T20:15:43.209Z,19.80
2018-07-03T20:18:12.478Z,19.80
2018-07-03T20:20:40.949Z,19.80
2018-07-03T20:23:09.424Z,19.80
2018-07-03T20:28:07.098Z,19.80
2018-07-03T20:30:35.524Z,19.80
2018-07-03T20:33:04.006Z,19.80
2018-07-03T20:35:32.458Z,19.80
2018-07-03T20:38:03.121Z,19.80
2018-07-03T20:40:43.380Z,19.80
2018-07-03T20:43:11.855Z,19.80
2018-07-03T20:45:40.329Z,19.80
2018-07-03T20:48:08.801Z,19.80
2018-07-03T20:50:37.257Z,19.80
2018-07-03T20:53:06.012Z,19.80
2018-07-03T20:55:34.469Z,19.70
2018-07-03T20:58:02.933Z,19.70
2018-07-03T21:00:31.390Z,19.60
2018-07-03T21:02:59.853Z,19.60
2018-07-03T21:05:28.285Z,19.50
2018-07-03T21:07:56.773Z,19.50
2018-07-03T21:10:25.241Z,19.40
2018-07-03T21:12:53.713Z,19.40
2018-07-03T21:15:22.231Z,19.30
2018-07-03T21:17:50.696Z,19.20
2018-07-03T21:20:19.357Z,19.10
2018-07-03T21:22:47.927Z,19.10
2018-07-03T21:25:16.394Z,19.10
2018-07-03T21:27:44.940Z,19.00
2018-07-03T21:30:13.991Z,19.00
2018-07-03T21:32:43.006Z,19.00
2018-07-03T21:35:11.497Z,19.00
2018-07-03T21:37:39.966Z,19.00
2018-07-03T21:40:08.460Z,18.90
2018-07-03T21:42:37.369Z,18.80
2018-07-03T21:45:06.081Z,18.70
2018-07-03T21:47:34.540Z,18.50
2018-07-03T21:50:03.117Z,18.40
2018-07-03T21:52:31.604Z,18.30
2018-07-03T21:55:00.084Z,18.20
2018-07-03T21:57:28.553Z,18.10
2018-07-03T21:59:56.967Z,18.10
2018-07-03T22:02:25.425Z,18.10
2018-07-03T22:04:53.849Z,18.10
2018-07-03T22:07:22.314Z,18.00
2018-07-03T22:09:50.737Z,17.90
2018-07-03T22:12:19.185Z,17.80
2018-07-03T22:14:47.630Z,17.70
2018-07-03T22:17:16.296Z,17.60
2018-07-03T22:19:44.721Z,17.40
2018-07-03T22:22:13.201Z,17.30
2018-07-03T22:24:41.694Z,17.30
2018-07-03T22:27:10.141Z,17.20
2018-07-03T22:29:38.617Z,17.30
2018-07-03T22:32:07.041Z,17.40
2018-07-03T22:34:35.505Z,17.50
2018-07-03T22:39:32.146Z,17.50
2018-07-03T22:42:00.573Z,17.50
2018-07-03T22:44:29.041Z,17.60
2018-07-03T22:46:57.448Z,17.60
2018-07-03T22:49:25.923Z,17.70
2018-07-03T22:51:54.377Z,17.70
2018-07-03T22:54:22.879Z,17.70
2018-07-03T22:56:51.480Z,17.80
2018-07-03T22:59:19.945Z,17.80
2018-07-03T23:01:48.386Z,17.80
2018-07-03T23:04:16.856Z,17.80
2018-07-03T23:06:45.289Z,17.80
2018-07-03T23:09:13.743Z,17.70
2018-07-03T23:11:42.181Z,17.70
2018-07-03T23:14:10.638Z,17.70
2018-07-03T23:16:39.060Z,17.70
2018-07-03T23:19:07.535Z,17.70
2018-07-03T23:21:35.981Z,17.70
2018-07-03T23:24:04.460Z,17.70
2018-07-03T23:26:32.891Z,17.80
2018-07-03T23:29:01.349Z,17.80
2018-07-03T23:31:29.792Z,17.80
2018-07-03T23:33:58.260Z,17.70
2018-07-03T23:36:26.709Z,17.70
2018-07-03T23:38:55.174Z,17.70
2018-07-03T23:41:23.593Z,17.60
2018-07-03T23:43:52.038Z,17.60
2018-07-03T23:46:31.817Z,17.60
2018-07-03T23:49:11.621Z,17.50
2018-07-03T23:51:51.212Z,17.50
2018-07-03T23:54:30.961Z,17.50
2018-07-03T23:57:10.660Z,17.40
2018-07-03T23:59:50.545Z,17.40
